KCPS/CPS METAR and TAF weather

Enter ICAO airport designator
Station Type Date Time Source
KCPS METAR 2020/12/05 05:53 UTC NOAA

KCPS 050553Z AUTO 23004KT 10SM CLR 01/M02 A3009 RMK AO2 SLP192 T00061017 10078 20000 401001006 51008


Station Type Date Time Source
KCPS Decoded METAR 2020/12/05 05:53 UTC NOAA

ST LOUIS DOWNTOWN AIRPORT, IL, United States (KCPS) 38-34N 090-09W 126M
Dec 05, 2020 - 12:53 AM EST / 2020.12.05 0553 UTC
Wind: from the SW (230 degrees) at 5 MPH (4 KT):0
Visibility: 10 mile(s):0
Sky conditions: clear
Temperature: 33.1 F (0.6 C)
Windchill: 28 F (-2 C):1
Dew Point: 28.9 F (-1.7 C)
Relative Humidity: 84%
Pressure (altimeter): 30.09 in. Hg (1018 hPa)
Pressure tendency: 0.02 inches (0.8 hPa) higher than three hours ago
ob: KCPS 050553Z AUTO 23004KT 10SM CLR 01/M02 A3009 RMK AO2 SLP192 T00061017 10078 20000 401001006 51008
cycle: 6

Station Type Date Time Source
KCPS TAF 2020/12/05 06:22 UTC NOAA

TAF KCPS 050520Z 0506/0606 VRB03KT P6SM SKC
FM050700 VRB03KT 3SM BR SKC
FM051500 00000KT P6SM FEW250

Example: see airport list